This is the latest recevied weather packets stored in our database for station/object N1TKS. If no packets are shown the sender has not sent any weather packets the latest 10 day(s).
| Time | Temp. | Humidity | Pressure | Rain* | Wind** | Luminosity | Snow |
|---|---|---|---|---|---|---|---|
| 1777649391 | 13.89° C | 46% | 1013.2 hPa | 0 mm | - | - | - |
| 1777648751 | 14.44° C | 44% | 1013.3 hPa | 0 mm | - | - | - |
| 1777648614 | 14.44° C | 44% | 1013.3 hPa | 0 mm | - | - | - |
| 1777648467 | 13.89° C | 48% | 1013.2 hPa | 0 mm | - | - | - |
| 1777648316 | 13.89° C | 48% | 1013.2 hPa | 0 mm | - | - | - |
| 1777648014 | 13.89° C | 46% | 1013.2 hPa | 0 mm | - | - | - |
| 1777647802 | 13.89° C | 46% | 1013.2 hPa | 0 mm | - | - | - |
| 1777647714 | 13.89° C | 46% | 1013.2 hPa | 0 mm | - | - | - |
| 1777647534 | 13.89° C | 46% | 1013.1 hPa | 0 mm | - | - | - |
| 1777647479 | 13.33° C | 50% | 1013.2 hPa | 0 mm | - | - | - |
| 1777647474 | 13.33° C | 50% | 1013.2 hPa | 0 mm | - | - | - |
| 1777647415 | 13.89° C | 46% | 1013.1 hPa | 0 mm | - | - | - |
| 1777647203 | 14.44° C | 47% | 1013.2 hPa | 0 mm | - | - | - |
| 1777647114 | 14.44° C | 47% | 1013.2 hPa | 0 mm | - | - | - |
| 1777646815 | 13.89° C | 48% | 1013.2 hPa | 0 mm | - | - | - |
| 1777646632 | 13.89° C | 48% | 1013.2 hPa | 0 mm | - | - | - |
| 1777646515 | 13.89° C | 48% | 1013.2 hPa | 0 mm | - | - | - |
| 1777646338 | 13.33° C | 50% | 1013.2 hPa | 0 mm | - | - | - |
| 1777646214 | 13.33° C | 50% | 1013.2 hPa | 0 mm | - | - | - |
| 1777646008 | 13.33° C | 50% | 1013.2 hPa | 0 mm | - | - | - |
| 1777645913 | 13.33° C | 50% | 1013.2 hPa | 0 mm | - | - | - |
| 1777645614 | 12.78° C | 49% | 1013.3 hPa | 0 mm | - | - | - |
| 1777645560 | 12.78° C | 51% | 1013.2 hPa | 0 mm | - | - | - |
| 1777645553 | 12.78° C | 51% | 1013.3 hPa | 0 mm | - | - | - |
| 1777645315 | 12.78° C | 50% | 1013.2 hPa | 0 mm | - | - | - |
* Rain latest hour (hover to see other rain measurements)
** Current wind speed in m/s (hover to see current wind gust speed)